KMSY Airport Information

Runway Information
Runway 02 Length 7001 ft width 150 ft Elevation 3 ft Threshold N/A Heading 15
Runway 20 Length 7001 ft Width 150 ft Elevation ft Threshold N/A Heading 195
Runway 06 Length 3570 ft width 150 ft Elevation 2 ft Threshold N/A Heading 60
Runway 24 Length 3570 ft Width 150 ft Elevation 1 ft Threshold N/A Heading 240
Runway 11 Length 10104 ft width 150 ft Elevation 4 ft Threshold N/A Heading 106
Runway 29 Length 10104 ft Width 150 ft Elevation 2 ft Threshold 304 ft Heading 286
Airport Frequencies
Type A/D Name NEW ORLEAN Frequency 123.85 MHZ
Type ATIS Name ATIS Frequency 127.55 MHZ
Type CLD Name CLNC DEL Frequency 127.2 MHZ
Type GND Name GND Frequency 121.9 MHZ
Type TWR Name TWR Frequency 119.5 MHZ
Type UNIC Name UNICOM Frequency 122.95 MHZ
Airport Navaids
Type NDB Name Kinte Frequency 338 KHZ
Airport Weather Information & NOTAM
ADDS - METARS form results

(0632 UTC 31 January 2023)
Data provider http://aviationweather.gov/metar/data/
 
METAR text: KMSY 310611Z 20005KT 1SM BR VV002 19/19 A3014 RMK AO2 T01940194 RVRNO
Conditions at: KMSY (NEW ORLEANS/INTL, LA, US) observed 0611 UTC 31 January 2023
Temperature: 19.4°C (67°F)
Dewpoint: 19.4°C (67°F) [RH = 100%]
Pressure (altimeter): 30.14 inches Hg (1020.7 mb)
Winds: from the SSW (200 degrees) at 6 MPH (5 knots; 2.6 m/s)
Visibility: 1.00 miles (1.61 km)
Ceiling: indefinite ceiling with vertical visibility of 200 feet AGL
Clouds: obscured sky
Weather: BR  (mist)

METAR text: KMSY 310553Z 18005KT 3/4SM BR VV002 19/19 A3014 RMK AO2 SLP210 T01940194 10233 20194 402670194 50000 RVRNO
Conditions at: KMSY (NEW ORLEANS/INTL, LA, US) observed 0553 UTC 31 January 2023
Temperature: 19.4°C (67°F)
Dewpoint: 19.4°C (67°F) [RH = 100%]
Pressure (altimeter): 30.14 inches Hg (1020.7 mb)
[Sea-level pressure: 1021.0 mb]
Winds: from the S (180 degrees) at 6 MPH (5 knots; 2.6 m/s)
Visibility: 0.75 miles (1.21 km)
Ceiling: indefinite ceiling with vertical visibility of 200 feet AGL
Clouds: obscured sky
Weather: BR  (mist)

METAR text: KMSY 310535Z 19005KT 3/4SM BR VV002 19/19 A3015 RMK AO2 T01940194 RVRNO
Conditions at: KMSY (NEW ORLEANS/INTL, LA, US) observed 0535 UTC 31 January 2023
Temperature: 19.4°C (67°F)
Dewpoint: 19.4°C (67°F) [RH = 100%]
Pressure (altimeter): 30.15 inches Hg (1021.1 mb)
Winds: from the S (190 degrees) at 6 MPH (5 knots; 2.6 m/s)
Visibility: 0.75 miles (1.21 km)
Ceiling: indefinite ceiling with vertical visibility of 200 feet AGL
Clouds: obscured sky
Weather: BR  (mist)

Forecast for: KMSY (NEW ORLEANS/INTL, LA, US)
Text: KMSY 310524Z 3106/0112 VRB05KT 1/2SM FG VV002
Forecast period: 0600 to 0700 UTC 31 January 2023
Forecast type: FROM: standard forecast or significant change
Winds: variable direction winds at 6 MPH (5 knots; 2.6 m/s)
Visibility: 0.50 miles (0.80 km)
Ceiling: indefinite ceiling with vertical visibility of 200 feet AGL
Clouds: obscured sky
Weather: FG  (fog)
Text: FM310700 VRB04KT 1/4SM FG OVC001
Forecast period: 0700 to 1600 UTC 31 January 2023
Forecast type: FROM: standard forecast or significant change
Winds: variable direction winds at 5 MPH (4 knots; 2.1 m/s)
Visibility: 0.25 miles (0.40 km)
Ceiling: 100 feet AGL
Clouds: overcast cloud deck at 100 feet AGL
Weather: FG  (fog)
Text: FM311600 VRB04KT 2SM BR BKN003
Forecast period: 1600 to 1900 UTC 31 January 2023
Forecast type: FROM: standard forecast or significant change
Winds: variable direction winds at 5 MPH (4 knots; 2.1 m/s)
Visibility: 2.00 miles (3.22 km)
Ceiling: 300 feet AGL
Clouds: broken clouds at 300 feet AGL
Weather: BR  (mist)
Text: FM311900 03005KT P6SM BKN015
Forecast period: 1900 UTC 31 January 2023 to 0200 UTC 01 February 2023
Forecast type: FROM: standard forecast or significant change
Winds: from the NNE (30 degrees) at 6 MPH (5 knots; 2.6 m/s)
Visibility: 6 or more miles (10+ km)
Ceiling: 1500 feet AGL
Clouds: broken clouds at 1500 feet AGL
Weather: no significant weather forecast for this period
Text: FM010200 03005KT 5SM BR BKN005
Forecast period: 0200 to 1200 UTC 01 February 2023
Forecast type: FROM: standard forecast or significant change
Winds: from the NNE (30 degrees) at 6 MPH (5 knots; 2.6 m/s)
Visibility: 5 miles (8 km)
Ceiling: 500 feet AGL
Clouds: broken clouds at 500 feet AGL
Weather: BR  (mist)